Time;durP1;ratioP1;P1;durP2;ratioP2;P2;SDS_P1;SDS_P2;PMS_P1;PMS_P2;Temp;Humidity;BMP_temperature;BMP_pressure;BME280_temperature;BME280_humidity;BME280_pressure;Samples;Min_cycle;Max_cycle;Signal;HPM_P1;HPM_P2
2021/12/12 00:06:18;;;;;;;;;;;5.10;99.90;;;;;;6216856;23;19931;-80
2021/12/12 00:21:32;;;;;;;;;;;4.60;99.90;;;;;;6158204;23;19927;-80
2021/12/12 00:54:22;;;;;;;;;;;6.50;99.90;;;;;;6174077;23;19931;-77
2021/12/12 00:56:50;;;;;;;;;;;5.30;99.90;;;;;;6188829;23;19931;-77
2021/12/12 00:59:28;;;;;;;;;;;5.30;99.90;;;;;;6186132;23;19928;-76
2021/12/12 01:02:05;;;;;;;;;;;5.40;99.90;;;;;;6188232;23;19959;-76
2021/12/12 01:04:36;;;;;;;;;;;6.20;99.90;;;;;;6181939;23;19931;-77
2021/12/12 01:07:11;;;;;;;;;;;5.30;99.90;;;;;;6188069;23;19923;-77
2021/12/12 01:09:43;;;;;;;;;;;5.10;99.90;;;;;;6188616;23;19924;-76
2021/12/12 01:12:11;;;;;;;;;;;5.30;99.90;;;;;;6185602;23;20344;-77
2021/12/12 01:14:55;;;;;;;;;;;5.40;99.90;;;;;;6187528;23;19920;-76
2021/12/12 01:17:38;;;;;;;;;;;5.40;99.90;;;;;;6188466;23;19928;-77
2021/12/12 01:20:55;;;;;;;;;;;5.40;99.90;;;;;;6168721;23;19978;-76
2021/12/12 01:23:42;;;;;;;;;;;5.30;99.90;;;;;;6032166;23;20004;-77
2021/12/12 01:26:46;;;;;;;;;;;5.40;99.90;;;;;;6032289;23;19944;-77
2021/12/12 01:29:11;;;;;;;;;;;5.50;99.90;;;;;;6184333;23;19927;-77
2021/12/12 01:31:50;;;;;;;;;;;5.30;99.90;;;;;;6186864;23;19919;-77
2021/12/12 01:34:29;;;;;;;;;;;5.60;99.90;;;;;;6186798;23;20049;-77
2021/12/12 01:40:23;;;;;;;;;;;5.40;99.90;;;;;;6188110;23;20292;-76
2021/12/12 01:43:25;;;;;;;;;;;5.20;99.90;;;;;;6187760;23;19959;-77
2021/12/12 01:46:11;;;;;;;;;;;6.00;99.90;;;;;;6188550;23;19970;-78
2021/12/12 01:48:57;;;;;;;;;;;5.50;99.90;;;;;;6188352;23;19923;-78
2021/12/12 01:51:23;;;;;;;;;;;5.30;99.90;;;;;;6187500;23;19927;-78
2021/12/12 01:53:51;;;;;;;;;;;5.50;99.90;;;;;;6188163;23;19920;-78
2021/12/12 01:56:33;;;;;;;;;;;5.60;99.90;;;;;;6214819;23;19916;-78
2021/12/12 01:59:01;;;;;;;;;;;5.40;99.90;;;;;;6188194;23;19987;-78
2021/12/12 02:01:57;;;;;;;;;;;5.00;99.90;;;;;;6187769;23;19920;-76
2021/12/12 02:04:26;;;;;;;;;;;4.80;99.90;;;;;;6040165;23;19997;-77
2021/12/12 02:07:08;;;;;;;;;;;5.30;99.90;;;;;;6040925;23;19970;-77
2021/12/12 02:09:49;;;;;;;;;;;5.20;99.90;;;;;;6041000;23;19929;-77
2021/12/12 02:12:15;;;;;;;;;;;4.20;99.90;;;;;;6039666;23;19930;-77
2021/12/12 02:14:41;;;;;;;;;;;5.20;99.90;;;;;;6097067;23;19974;-77
2021/12/12 02:17:34;;;;;;;;;;;6.00;99.90;;;;;;6213336;23;20249;-77
2021/12/12 02:20:36;;;;;;;;;;;5.10;99.90;;;;;;6146695;23;19923;-76
2021/12/12 02:37:42;;;;;;;;;;;5.40;99.90;;;;;;6187781;23;20324;-78
2021/12/12 02:40:11;;;;;;;;;;;5.40;99.90;;;;;;6187709;23;19926;-77
2021/12/12 02:42:37;;;;;;;;;;;5.50;99.90;;;;;;6188355;23;19920;-78
2021/12/12 02:45:04;;;;;;;;;;;5.50;99.90;;;;;;6188524;23;19920;-77
2021/12/12 02:47:34;;;;;;;;;;;5.50;99.90;;;;;;6180194;23;19931;-76
2021/12/12 02:50:27;;;;;;;;;;;5.50;99.90;;;;;;6182942;23;19920;-75
2021/12/12 02:53:05;;;;;;;;;;;5.50;99.90;;;;;;6181829;23;19924;-76
2021/12/12 02:55:33;;;;;;;;;;;5.60;99.90;;;;;;6182952;23;20058;-78
2021/12/12 02:58:12;;;;;;;;;;;5.60;99.90;;;;;;6182028;23;19928;-77
2021/12/12 03:00:44;;;;;;;;;;;4.70;99.90;;;;;;6182500;23;19999;-78
2021/12/12 03:03:10;;;;;;;;;;;5.60;99.90;;;;;;6182552;23;19991;-78
2021/12/12 03:05:43;;;;;;;;;;;5.70;99.90;;;;;;6183246;23;19928;-78
2021/12/12 03:08:10;;;;;;;;;;;6.60;99.90;;;;;;6182074;23;19979;-78
2021/12/12 03:10:38;;;;;;;;;;;5.50;99.90;;;;;;6183260;23;20230;-78
2021/12/12 03:13:04;;;;;;;;;;;5.60;99.90;;;;;;6183219;23;20359;-78
2021/12/12 03:15:31;;;;;;;;;;;5.60;99.90;;;;;;6182519;23;19974;-77
2021/12/12 03:18:00;;;;;;;;;;;5.70;99.90;;;;;;6182869;23;19920;-77
2021/12/12 03:20:37;;;;;;;;;;;5.70;99.90;;;;;;6182882;23;19920;-76
2021/12/12 03:23:23;;;;;;;;;;;5.70;99.90;;;;;;6183089;23;19924;-77
2021/12/12 03:25:53;;;;;;;;;;;5.70;99.90;;;;;;6182150;23;19935;-77
2021/12/12 03:28:20;;;;;;;;;;;5.80;99.90;;;;;;6181788;23;19950;-77
2021/12/12 03:30:46;;;;;;;;;;;5.80;99.90;;;;;;6182980;23;19916;-77
2021/12/12 03:33:11;;;;;;;;;;;5.70;99.90;;;;;;6182349;23;19921;-76
2021/12/12 03:35:38;;;;;;;;;;;5.80;99.90;;;;;;6182039;23;19923;-77
2021/12/12 03:38:04;;;;;;;;;;;5.70;99.90;;;;;;6182729;23;19991;-77
2021/12/12 03:40:33;;;;;;;;;;;5.70;99.90;;;;;;6182361;23;19955;-77
2021/12/12 03:43:00;;;;;;;;;;;5.80;99.90;;;;;;6182165;23;19931;-77
2021/12/12 03:45:26;;;;;;;;;;;5.80;99.90;;;;;;6182548;23;19967;-77
2021/12/12 03:48:07;;;;;;;;;;;5.70;99.90;;;;;;6193541;23;19943;-76
2021/12/12 03:50:49;;;;;;;;;;;5.70;99.90;;;;;;6188554;23;19990;-76
2021/12/12 03:53:15;;;;;;;;;;;6.40;99.90;;;;;;6189443;23;20347;-77
2021/12/12 03:55:48;;;;;;;;;;;5.70;99.90;;;;;;6167624;23;19924;-76
2021/12/12 03:58:24;;;;;;;;;;;6.70;99.90;;;;;;6159324;23;19924;-78
2021/12/12 04:01:13;;;;;;;;;;;5.80;99.90;;;;;;6158486;23;19921;-77
2021/12/12 04:03:42;;;;;;;;;;;5.80;99.90;;;;;;6159255;23;20411;-77
2021/12/12 04:06:11;;;;;;;;;;;5.80;99.90;;;;;;6160257;23;20351;-77
2021/12/12 04:08:39;;;;;;;;;;;6.40;99.90;;;;;;6158596;23;19979;-77
2021/12/12 04:11:07;;;;;;;;;;;5.80;99.90;;;;;;6159501;23;19920;-77
2021/12/12 04:13:37;;;;;;;;;;;5.70;99.90;;;;;;6159457;23;20264;-77
2021/12/12 04:16:12;;;;;;;;;;;5.80;99.90;;;;;;6160347;23;19920;-77
2021/12/12 04:18:37;;;;;;;;;;;5.90;99.90;;;;;;6159031;23;20280;-77
2021/12/12 04:21:03;;;;;;;;;;;5.90;99.90;;;;;;6160340;23;19920;-77
2021/12/12 04:23:29;;;;;;;;;;;5.80;99.90;;;;;;6159450;23;19931;-77
2021/12/12 04:26:07;;;;;;;;;;;5.70;99.90;;;;;;6159410;23;20248;-77
2021/12/12 04:28:32;;;;;;;;;;;5.80;99.90;;;;;;6159443;23;20244;-77
2021/12/12 04:30:58;;;;;;;;;;;5.90;99.90;;;;;;6159447;23;19920;-77
2021/12/12 04:33:24;;;;;;;;;;;5.90;99.90;;;;;;6159067;23;19924;-77
2021/12/12 04:35:50;;;;;;;;;;;5.80;99.90;;;;;;6159411;23;20420;-77
2021/12/12 04:38:15;;;;;;;;;;;5.70;99.90;;;;;;6158310;23;19920;-77
2021/12/12 04:40:41;;;;;;;;;;;5.70;99.90;;;;;;6159758;23;19921;-77
2021/12/12 04:43:06;;;;;;;;;;;5.70;99.90;;;;;;6159665;23;20015;-77
2021/12/12 04:45:57;;;;;;;;;;;5.70;99.90;;;;;;6158206;23;20004;-77
2021/12/12 04:51:15;;;;;;;;;;;5.80;99.90;;;;;;6186272;23;19920;-77
2021/12/12 04:53:44;;;;;;;;;;;5.90;99.90;;;;;;6159101;23;19932;-77
2021/12/12 04:56:15;;;;;;;;;;;5.80;99.90;;;;;;6182218;23;19944;-77
2021/12/12 04:58:41;;;;;;;;;;;5.80;99.90;;;;;;6215971;23;19973;-76
2021/12/12 05:01:11;;;;;;;;;;;5.70;99.90;;;;;;6214805;23;19926;-77
2021/12/12 05:03:39;;;;;;;;;;;5.70;99.90;;;;;;6188435;23;20387;-78
2021/12/12 05:06:15;;;;;;;;;;;5.80;99.90;;;;;;6188487;23;19927;-77
2021/12/12 05:08:59;;;;;;;;;;;5.70;99.90;;;;;;6215602;23;19923;-76
2021/12/12 05:11:30;;;;;;;;;;;5.80;99.90;;;;;;6187543;23;19926;-76
2021/12/12 05:13:59;;;;;;;;;;;5.70;99.90;;;;;;6188382;23;19982;-76
2021/12/12 05:16:30;;;;;;;;;;;5.80;99.90;;;;;;6186081;23;19920;-76
2021/12/12 05:19:04;;;;;;;;;;;5.80;99.90;;;;;;6189052;23;19942;-77
2021/12/12 05:21:32;;;;;;;;;;;6.50;99.90;;;;;;6187234;23;20010;-76
2021/12/12 05:23:59;;;;;;;;;;;5.80;99.90;;;;;;6188979;23;19919;-78
2021/12/12 05:26:32;;;;;;;;;;;5.80;99.90;;;;;;6187896;23;19958;-76
2021/12/12 05:29:04;;;;;;;;;;;5.80;99.90;;;;;;6188201;23;20336;-77
2021/12/12 05:31:31;;;;;;;;;;;5.80;99.90;;;;;;6188037;23;20006;-78
2021/12/12 05:34:00;;;;;;;;;;;5.80;99.90;;;;;;6188384;23;19924;-76
2021/12/12 05:36:27;;;;;;;;;;;5.80;99.90;;;;;;6186998;23;19920;-77
2021/12/12 05:38:53;;;;;;;;;;;5.80;99.90;;;;;;6188438;23;20344;-77
2021/12/12 05:41:20;;;;;;;;;;;5.80;99.90;;;;;;6187224;23;19967;-77
2021/12/12 05:43:46;;;;;;;;;;;5.70;99.90;;;;;;6188522;23;20003;-77
2021/12/12 05:46:18;;;;;;;;;;;5.80;99.90;;;;;;6214294;23;20328;-77
2021/12/12 05:48:44;;;;;;;;;;;5.80;99.90;;;;;;6215666;23;19991;-77
2021/12/12 05:51:09;;;;;;;;;;;5.70;99.90;;;;;;6188525;23;19920;-78
2021/12/12 05:53:35;;;;;;;;;;;5.80;99.90;;;;;;6188776;23;19926;-78
2021/12/12 05:56:01;;;;;;;;;;;5.80;99.90;;;;;;6187973;23;19923;-77
2021/12/12 05:58:26;;;;;;;;;;;5.80;99.90;;;;;;6187834;23;19916;-77
2021/12/12 06:00:57;;;;;;;;;;;5.80;99.90;;;;;;6188464;23;19920;-78
2021/12/12 06:03:24;;;;;;;;;;;5.90;99.90;;;;;;6186542;23;19924;-81
2021/12/12 06:05:51;;;;;;;;;;;5.90;99.90;;;;;;6188127;23;19926;-80
2021/12/12 06:08:16;;;;;;;;;;;5.80;99.90;;;;;;6187898;23;19924;-79
2021/12/12 06:10:43;;;;;;;;;;;5.90;99.90;;;;;;6187767;23;19920;-83
2021/12/12 06:13:11;;;;;;;;;;;5.90;99.90;;;;;;6187702;23;19920;-77
2021/12/12 06:15:37;;;;;;;;;;;5.90;99.90;;;;;;6187217;23;19991;-75
2021/12/12 06:18:31;;;;;;;;;;;5.80;99.90;;;;;;6210640;23;19920;-76
2021/12/12 06:20:58;;;;;;;;;;;6.20;99.90;;;;;;6187492;23;20002;-76
2021/12/12 06:23:25;;;;;;;;;;;7.20;99.90;;;;;;6187526;23;19931;-76
2021/12/12 06:25:53;;;;;;;;;;;5.90;99.90;;;;;;6186424;23;19940;-76
2021/12/12 06:31:10;;;;;;;;;;;6.00;99.90;;;;;;6199339;22;19920;-77
2021/12/12 06:40:22;;;;;;;;;;;5.90;99.90;;;;;;6186865;23;19958;-76
2021/12/12 06:42:49;;;;;;;;;;;6.00;99.90;;;;;;6188156;23;19926;-76
2021/12/12 06:47:55;;;;;;;;;;;6.00;99.90;;;;;;6155264;23;19921;-78
2021/12/12 06:53:51;;;;;;;;;;;6.00;99.90;;;;;;6134804;23;20252;-78
2021/12/12 06:56:17;;;;;;;;;;;4.70;99.90;;;;;;6079390;23;20261;-77
2021/12/12 06:58:48;;;;;;;;;;;6.10;99.90;;;;;;6127807;23;20249;-77
2021/12/12 07:05:14;;;;;;;;;;;6.00;99.90;;;;;;6155065;23;20332;-78
2021/12/12 07:07:44;;;;;;;;;;;6.10;99.90;;;;;;6128118;23;19920;-77
2021/12/12 07:10:50;;;;;;;;;;;4.80;99.90;;;;;;6157372;23;20393;-77
2021/12/12 07:13:35;;;;;;;;;;;5.90;99.90;;;;;;6187373;23;19930;-78
2021/12/12 07:16:14;;;;;;;;;;;6.80;99.90;;;;;;6188324;23;19920;-77
2021/12/12 07:19:07;;;;;;;;;;;6.50;99.90;;;;;;6187833;23;19922;-77
2021/12/12 07:21:36;;;;;;;;;;;5.30;99.90;;;;;;6187095;23;19927;-77
2021/12/12 07:24:16;;;;;;;;;;;6.30;99.90;;;;;;6189193;23;19924;-77
2021/12/12 07:26:44;;;;;;;;;;;7.20;99.90;;;;;;6189507;23;19920;-78
2021/12/12 07:29:22;;;;;;;;;;;6.40;99.90;;;;;;6187911;23;19924;-78
2021/12/12 07:32:16;;;;;;;;;;;6.50;99.90;;;;;;6190218;23;20332;-78
2021/12/12 07:51:37;;;;;;;;;;;6.80;99.90;;;;;;6216604;23;19952;-78
2021/12/12 07:54:10;;;;;;;;;;;6.90;99.90;;;;;;6189513;23;19920;-78
2021/12/12 07:56:43;;;;;;;;;;;6.70;99.90;;;;;;6189020;23;19927;-77
2021/12/12 07:59:37;;;;;;;;;;;7.20;99.90;;;;;;6189138;23;19916;-77
2021/12/12 08:05:43;;;;;;;;;;;6.20;99.90;;;;;;6215725;23;19915;-79
2021/12/12 08:17:16;;;;;;;;;;;6.80;99.90;;;;;;6188197;23;19926;-76
2021/12/12 08:19:55;;;;;;;;;;;7.50;99.90;;;;;;6189098;23;19919;-77
2021/12/12 08:22:31;;;;;;;;;;;7.50;99.90;;;;;;6188757;23;19924;-79
2021/12/12 08:25:10;;;;;;;;;;;7.70;99.90;;;;;;6188890;23;19942;-80
2021/12/12 08:27:39;;;;;;;;;;;7.50;99.90;;;;;;6189344;23;20256;-78
2021/12/12 08:30:05;;;;;;;;;;;7.50;99.90;;;;;;6188040;23;19970;-80
2021/12/12 08:32:30;;;;;;;;;;;7.60;99.90;;;;;;6188633;23;20114;-79
2021/12/12 08:34:56;;;;;;;;;;;7.60;99.90;;;;;;6189151;23;19916;-80
2021/12/12 08:37:21;;;;;;;;;;;7.60;99.90;;;;;;6188296;23;19923;-78
2021/12/12 08:39:47;;;;;;;;;;;7.70;99.90;;;;;;6189151;23;19935;-80
2021/12/12 08:42:13;;;;;;;;;;;7.70;99.90;;;;;;6188675;23;19955;-79
2021/12/12 08:44:39;;;;;;;;;;;7.70;99.90;;;;;;6188436;23;20300;-82
2021/12/12 08:47:06;;;;;;;;;;;7.70;99.90;;;;;;6189527;23;19920;-80
2021/12/12 08:49:32;;;;;;;;;;;7.70;99.90;;;;;;6188611;23;20336;-79
2021/12/12 08:52:00;;;;;;;;;;;7.80;99.90;;;;;;6188649;23;19999;-81
2021/12/12 08:54:27;;;;;;;;;;;7.80;99.90;;;;;;6189469;23;19927;-86
2021/12/12 08:57:05;;;;;;;;;;;7.80;99.90;;;;;;6189203;23;19999;-78
2021/12/12 08:59:31;;;;;;;;;;;7.80;99.90;;;;;;6188216;23;19924;-81
2021/12/12 09:01:59;;;;;;;;;;;7.80;99.90;;;;;;6215810;23;19996;-83
2021/12/12 09:04:27;;;;;;;;;;;7.90;99.90;;;;;;6189030;23;19927;-80
2021/12/12 09:07:14;;;;;;;;;;;7.80;99.90;;;;;;6188417;23;19963;-82
2021/12/12 09:09:44;;;;;;;;;;;7.90;99.90;;;;;;6188333;23;19920;-81
2021/12/12 09:12:18;;;;;;;;;;;8.00;99.90;;;;;;6188476;23;19920;-79
2021/12/12 09:15:13;;;;;;;;;;;8.00;99.90;;;;;;6189012;23;19991;-80
2021/12/12 09:17:43;;;;;;;;;;;8.00;99.90;;;;;;6156466;23;19920;-81
2021/12/12 09:20:22;;;;;;;;;;;8.00;99.90;;;;;;6188069;23;19919;-88
2021/12/12 09:23:00;;;;;;;;;;;8.10;99.90;;;;;;6189251;23;19920;-80
2021/12/12 09:41:59;;;;;;;;;;;7.60;99.90;;;;;;6157814;23;19934;-78
2021/12/12 09:45:01;;;;;;;;;;;7.80;99.90;;;;;;6158101;23;19927;-77
2021/12/12 09:57:04;;;;;;;;;;;8.90;99.90;;;;;;6187161;23;19919;-75
2021/12/12 09:59:48;;;;;;;;;;;8.40;99.90;;;;;;6184961;23;20015;-77
2021/12/12 10:02:21;;;;;;;;;;;8.50;99.90;;;;;;6185775;23;20324;-74
2021/12/12 10:04:56;;;;;;;;;;;8.60;99.90;;;;;;6182060;23;19951;-78
2021/12/12 10:07:52;;;;;;;;;;;9.60;99.90;;;;;;6182986;23;19920;-86
2021/12/12 10:13:50;;;;;;;;;;;8.70;99.90;;;;;;6187548;23;19924;-80
2021/12/12 10:16:39;;;;;;;;;;;8.60;99.90;;;;;;6186465;23;19927;-77
2021/12/12 10:19:21;;;;;;;;;;;8.70;99.90;;;;;;6187481;23;19927;-75
2021/12/12 10:22:00;;;;;;;;;;;8.80;99.90;;;;;;6187207;23;19966;-77
2021/12/12 10:24:31;;;;;;;;;;;8.80;99.90;;;;;;6186602;23;19998;-76
2021/12/12 10:34:03;;;;;;;;;;;8.90;99.90;;;;;;6214485;23;20339;-78
2021/12/12 11:09:42;;;;;;;;;;;10.20;99.90;;;;;;6183343;23;20013;-78
2021/12/12 11:19:32;;;;;;;;;;;9.60;99.90;;;;;;6187952;23;20256;-81
2021/12/12 11:22:41;;;;;;;;;;;8.80;99.90;;;;;;6188659;23;19931;-80
2021/12/12 11:45:52;;;;;;;;;;;9.10;99.90;;;;;;6158696;23;19920;-76
2021/12/12 11:48:55;;;;;;;;;;;9.80;99.90;;;;;;6156964;23;19967;-79
2021/12/12 11:51:39;;;;;;;;;;;9.80;99.90;;;;;;6181601;23;19946;-80
2021/12/12 11:57:29;;;;;;;;;;;9.90;99.90;;;;;;6184984;23;19979;-77
2021/12/12 12:21:36;;;;;;;;;;;10.10;99.90;;;;;;6070670;23;19925;-78
2021/12/12 12:24:38;;;;;;;;;;;9.90;99.90;;;;;;5983446;23;19953;-79
2021/12/12 12:27:38;;;;;;;;;;;9.10;99.90;;;;;;6003289;23;19922;-83
2021/12/12 12:33:43;;;;;;;;;;;8.00;99.90;;;;;;6035705;23;20323;-74
2021/12/12 12:59:43;;;;;;;;;;;9.90;99.90;;;;;;6187497;23;19920;-80
2021/12/12 13:05:35;;;;;;;;;;;8.70;99.90;;;;;;6188075;23;19928;-77
2021/12/12 13:08:22;;;;;;;;;;;10.10;99.90;;;;;;6188560;23;19924;-77
2021/12/12 13:10:48;;;;;;;;;;;10.10;99.90;;;;;;6215635;23;19970;-77
2021/12/12 13:13:31;;;;;;;;;;;10.10;99.90;;;;;;6214422;23;19920;-75
2021/12/12 13:16:05;;;;;;;;;;;10.10;99.90;;;;;;6186555;23;19920;-77
2021/12/12 13:18:50;;;;;;;;;;;10.10;99.90;;;;;;6188148;23;19990;-75
2021/12/12 13:21:40;;;;;;;;;;;10.00;99.90;;;;;;6187605;23;19970;-74
2021/12/12 13:24:25;;;;;;;;;;;10.00;99.90;;;;;;6188514;23;20011;-76
2021/12/12 13:27:04;;;;;;;;;;;10.00;99.90;;;;;;6187692;23;19947;-74
2021/12/12 13:29:36;;;;;;;;;;;10.00;99.90;;;;;;6188197;23;20343;-75
2021/12/12 13:32:12;;;;;;;;;;;9.90;99.90;;;;;;6161992;23;19998;-74
2021/12/12 13:34:47;;;;;;;;;;;10.00;99.90;;;;;;6215297;23;19923;-74
2021/12/12 13:37:15;;;;;;;;;;;10.00;99.90;;;;;;6188452;23;20299;-82
2021/12/12 13:39:56;;;;;;;;;;;10.00;99.90;;;;;;6188678;23;19990;-78
2021/12/12 13:42:41;;;;;;;;;;;10.00;99.90;;;;;;6188503;23;19920;-77
2021/12/12 13:45:17;;;;;;;;;;;9.90;99.90;;;;;;6214243;23;20019;-76
2021/12/12 13:48:04;;;;;;;;;;;9.90;99.90;;;;;;6187825;23;19920;-76
2021/12/12 13:50:32;;;;;;;;;;;9.90;99.90;;;;;;6188111;23;20367;-77
2021/12/12 13:53:10;;;;;;;;;;;9.90;99.90;;;;;;6186999;23;20356;-77
2021/12/12 13:55:46;;;;;;;;;;;9.90;99.90;;;;;;6187528;23;19966;-76
2021/12/12 13:58:26;;;;;;;;;;;9.90;99.90;;;;;;6188183;23;19920;-75
2021/12/12 14:00:56;;;;;;;;;;;9.90;99.90;;;;;;6187616;23;19920;-75
2021/12/12 14:03:33;;;;;;;;;;;9.90;99.90;;;;;;6215122;23;19974;-78
2021/12/12 14:06:05;;;;;;;;;;;9.90;99.90;;;;;;6213553;23;20213;-78
2021/12/12 14:08:36;;;;;;;;;;;9.80;99.90;;;;;;6186824;23;19920;-75
2021/12/12 14:11:04;;;;;;;;;;;9.80;99.90;;;;;;6215122;23;19927;-74
2021/12/12 14:13:33;;;;;;;;;;;9.80;99.90;;;;;;6187956;23;19923;-75
2021/12/12 14:16:02;;;;;;;;;;;9.80;99.90;;;;;;6213363;23;19947;-74
2021/12/12 14:18:30;;;;;;;;;;;9.80;99.90;;;;;;6187218;23;19920;-75
2021/12/12 14:20:56;;;;;;;;;;;9.80;99.90;;;;;;6187429;23;20353;-74
2021/12/12 14:23:28;;;;;;;;;;;9.80;99.90;;;;;;6213949;23;19920;-74
2021/12/12 14:25:59;;;;;;;;;;;9.80;99.90;;;;;;6188211;23;19970;-74
2021/12/12 14:28:25;;;;;;;;;;;9.80;99.90;;;;;;6187806;23;19982;-77
2021/12/12 14:30:52;;;;;;;;;;;9.80;99.90;;;;;;6187319;23;19916;-75
2021/12/12 14:36:50;;;;;;;;;;;9.90;99.90;;;;;;6201526;23;19915;-76
2021/12/12 14:39:31;;;;;;;;;;;9.90;99.90;;;;;;6187754;23;19931;-77
2021/12/12 14:49:46;;;;;;;;;;;10.70;99.90;;;;;;6035545;23;20319;-77
2021/12/12 14:52:49;;;;;;;;;;;9.50;99.90;;;;;;6035378;23;19975;-77
2021/12/12 14:55:17;;;;;;;;;;;9.80;99.90;;;;;;6012022;23;19926;-77
2021/12/12 15:03:11;;;;;;;;;;;10.00;99.90;;;;;;6214450;23;19920;-74
2021/12/12 15:05:48;;;;;;;;;;;10.00;99.90;;;;;;6185543;23;20295;-78
2021/12/12 15:08:37;;;;;;;;;;;10.00;99.90;;;;;;6179472;23;20770;-77
2021/12/12 15:11:30;;;;;;;;;;;10.00;99.90;;;;;;6156091;23;19928;-76
2021/12/12 15:13:59;;;;;;;;;;;10.00;99.90;;;;;;6157241;23;20359;-75
2021/12/12 15:16:37;;;;;;;;;;;10.00;99.90;;;;;;6157095;23;19968;-78
2021/12/12 15:19:08;;;;;;;;;;;10.00;99.90;;;;;;6157083;23;19951;-77
2021/12/12 15:21:36;;;;;;;;;;;10.00;99.90;;;;;;6154136;23;20329;-78
2021/12/12 15:24:06;;;;;;;;;;;10.00;99.90;;;;;;6182013;23;19979;-77
2021/12/12 15:26:35;;;;;;;;;;;10.00;99.90;;;;;;6182603;23;19923;-78
2021/12/12 15:29:01;;;;;;;;;;;10.00;99.90;;;;;;6183926;23;20227;-81
2021/12/12 15:31:30;;;;;;;;;;;10.00;99.90;;;;;;6157467;23;20395;-81
2021/12/12 15:33:57;;;;;;;;;;;10.00;99.90;;;;;;6156651;23;19920;-81
2021/12/12 15:36:28;;;;;;;;;;;10.00;99.90;;;;;;6157356;23;19921;-78
2021/12/12 15:45:33;;;;;;;;;;;10.20;99.90;;;;;;6153265;23;19928;-73
2021/12/12 15:47:59;;;;;;;;;;;10.10;99.90;;;;;;6153721;23;19925;-76
2021/12/12 15:50:30;;;;;;;;;;;10.30;99.90;;;;;;6158480;23;19920;-76
2021/12/12 15:52:59;;;;;;;;;;;10.10;99.90;;;;;;6154804;23;19920;-74
2021/12/12 15:55:39;;;;;;;;;;;10.10;99.90;;;;;;6158184;23;19928;-75
2021/12/12 15:58:15;;;;;;;;;;;10.10;99.90;;;;;;6158748;23;19924;-77
2021/12/12 16:00:45;;;;;;;;;;;10.10;99.90;;;;;;6156816;23;19982;-77
2021/12/12 16:03:22;;;;;;;;;;;10.10;99.90;;;;;;6153285;23;19943;-74
2021/12/12 16:06:09;;;;;;;;;;;9.30;99.90;;;;;;6157941;23;19924;-74
2021/12/12 16:08:46;;;;;;;;;;;10.10;99.90;;;;;;6158251;23;19999;-74
2021/12/12 16:11:21;;;;;;;;;;;10.00;99.90;;;;;;6158512;23;19920;-75
2021/12/12 16:13:52;;;;;;;;;;;10.00;99.90;;;;;;6158767;23;19927;-75
2021/12/12 16:16:33;;;;;;;;;;;9.90;99.90;;;;;;6184418;23;19926;-76
2021/12/12 16:19:10;;;;;;;;;;;9.90;99.90;;;;;;6159302;23;20339;-75
2021/12/12 16:21:47;;;;;;;;;;;9.90;99.90;;;;;;6157108;23;19920;-76
2021/12/12 16:24:33;;;;;;;;;;;9.90;99.90;;;;;;6185258;23;20004;-77
2021/12/12 16:27:19;;;;;;;;;;;9.10;99.90;;;;;;6185839;23;19920;-77
2021/12/12 16:29:46;;;;;;;;;;;9.90;99.90;;;;;;6183662;23;19931;-76
2021/12/12 16:32:19;;;;;;;;;;;9.90;99.90;;;;;;6158657;23;19952;-76
2021/12/12 16:34:55;;;;;;;;;;;9.90;99.90;;;;;;6158650;23;20245;-76
2021/12/12 16:37:31;;;;;;;;;;;9.80;99.90;;;;;;6156355;23;20349;-77
2021/12/12 16:40:04;;;;;;;;;;;9.90;99.90;;;;;;6158076;23;19920;-76
2021/12/12 16:42:30;;;;;;;;;;;10.20;99.90;;;;;;6184214;23;19924;-75
2021/12/12 16:45:06;;;;;;;;;;;9.80;99.90;;;;;;6184937;23;19920;-76
2021/12/12 16:47:33;;;;;;;;;;;9.80;99.90;;;;;;6157977;23;20249;-75
2021/12/12 16:50:00;;;;;;;;;;;10.70;99.90;;;;;;6183802;23;20340;-76
2021/12/12 16:52:30;;;;;;;;;;;10.50;99.90;;;;;;6158418;23;20070;-75
2021/12/12 16:54:57;;;;;;;;;;;9.90;99.90;;;;;;6158497;23;20396;-76
2021/12/12 16:57:23;;;;;;;;;;;10.00;99.90;;;;;;6157504;23;19952;-75
2021/12/12 17:03:09;;;;;;;;;;;10.00;99.90;;;;;;6158115;23;19920;-78
2021/12/12 17:06:04;;;;;;;;;;;10.00;99.90;;;;;;6157238;23;20019;-77
2021/12/12 17:08:57;;;;;;;;;;;8.80;99.90;;;;;;6182456;23;19924;-76
2021/12/12 17:14:52;;;;;;;;;;;10.00;99.90;;;;;;6158298;23;19920;-76
2021/12/12 17:20:43;;;;;;;;;;;10.00;99.90;;;;;;6011780;23;19928;-76
2021/12/12 17:23:45;;;;;;;;;;;10.00;99.90;;;;;;6018484;23;19954;-75
2021/12/12 17:26:23;;;;;;;;;;;10.00;99.90;;;;;;6127554;23;20230;-77
2021/12/12 17:29:05;;;;;;;;;;;10.00;99.90;;;;;;6128770;23;19928;-74
2021/12/12 17:31:41;;;;;;;;;;;10.10;99.90;;;;;;6127190;23;19960;-77
2021/12/12 17:37:57;;;;;;;;;;;10.00;99.90;;;;;;6154769;23;19963;-77
2021/12/12 17:40:38;;;;;;;;;;;9.70;99.90;;;;;;6127693;23;19921;-77
2021/12/12 17:58:47;;;;;;;;;;;10.10;99.90;;;;;;6125584;23;19932;-79
2021/12/12 18:07:29;;;;;;;;;;;9.60;99.90;;;;;;6154092;23;19920;-82
2021/12/12 18:25:53;;;;;;;;;;;10.00;99.90;;;;;;6159712;23;20249;-81
2021/12/12 18:28:24;;;;;;;;;;;10.10;99.90;;;;;;6010065;23;20009;-81
2021/12/12 18:31:05;;;;;;;;;;;9.40;99.90;;;;;;6013920;23;19922;-82
2021/12/12 18:33:38;;;;;;;;;;;10.10;99.90;;;;;;6107603;23;20305;-84
2021/12/12 18:36:31;;;;;;;;;;;10.50;99.90;;;;;;6152434;23;19925;-82
2021/12/12 18:57:35;;;;;;;;;;;10.20;99.90;;;;;;6151265;23;19921;-78
2021/12/12 19:03:38;;;;;;;;;;;10.40;99.90;;;;;;6153184;23;19928;-74
2021/12/12 22:21:03;;;;;;;;;;;10.00;99.90;;;;;;6128024;23;19976;-77
2021/12/12 22:23:29;;;;;;;;;;;9.90;99.90;;;;;;6127343;23;19924;-76
